sensor_id;sensor_type;location;lat;lon;timestamp;P1;durP1;ratioP1;P2;durP2;ratioP2
3068;SDS011;1545;51.728;8.796;2023-08-01T00:01:56;3.30;;;2.20;;
3068;SDS011;1545;51.728;8.796;2023-08-01T00:04:21;2.93;;;2.30;;
3068;SDS011;1545;51.728;8.796;2023-08-01T00:06:47;3.50;;;1.80;;
3068;SDS011;1545;51.728;8.796;2023-08-01T00:09:12;5.17;;;1.83;;
3068;SDS011;1545;51.728;8.796;2023-08-01T00:11:38;2.60;;;1.90;;
3068;SDS011;1545;51.728;8.796;2023-08-01T00:14:03;5.80;;;2.17;;
3068;SDS011;1545;51.728;8.796;2023-08-01T00:16:29;3.57;;;2.10;;
3068;SDS011;1545;51.728;8.796;2023-08-01T00:18:54;5.17;;;1.80;;
3068;SDS011;1545;51.728;8.796;2023-08-01T00:21:20;5.40;;;2.20;;
3068;SDS011;1545;51.728;8.796;2023-08-01T00:23:46;2.90;;;1.93;;
3068;SDS011;1545;51.728;8.796;2023-08-01T00:26:11;1.93;;;1.60;;
3068;SDS011;1545;51.728;8.796;2023-08-01T00:28:37;2.30;;;1.90;;
3068;SDS011;1545;51.728;8.796;2023-08-01T00:31:06;3.40;;;1.63;;
3068;SDS011;1545;51.728;8.796;2023-08-01T00:33:35;4.07;;;1.80;;
3068;SDS011;1545;51.728;8.796;2023-08-01T00:36:01;3.53;;;1.80;;
3068;SDS011;1545;51.728;8.796;2023-08-01T00:38:27;1.67;;;1.50;;
3068;SDS011;1545;51.728;8.796;2023-08-01T00:40:53;2.43;;;1.87;;
3068;SDS011;1545;51.728;8.796;2023-08-01T00:43:19;6.13;;;1.90;;
3068;SDS011;1545;51.728;8.796;2023-08-01T00:45:45;2.07;;;1.70;;
3068;SDS011;1545;51.728;8.796;2023-08-01T00:48:11;4.60;;;2.07;;
3068;SDS011;1545;51.728;8.796;2023-08-01T00:50:37;4.03;;;2.03;;
3068;SDS011;1545;51.728;8.796;2023-08-01T00:53:03;3.13;;;1.90;;
3068;SDS011;1545;51.728;8.796;2023-08-01T00:55:31;3.57;;;2.07;;
3068;SDS011;1545;51.728;8.796;2023-08-01T00:57:58;2.33;;;1.80;;
3068;SDS011;1545;51.728;8.796;2023-08-01T01:00:23;10.50;;;2.20;;
3068;SDS011;1545;51.728;8.796;2023-08-01T01:02:49;4.03;;;2.37;;
3068;SDS011;1545;51.728;8.796;2023-08-01T01:05:14;4.33;;;2.10;;
3068;SDS011;1545;51.728;8.796;2023-08-01T01:07:40;5.87;;;2.20;;
3068;SDS011;1545;51.728;8.796;2023-08-01T01:10:06;3.17;;;1.87;;
3068;SDS011;1545;51.728;8.796;2023-08-01T01:12:32;5.40;;;1.80;;
3068;SDS011;1545;51.728;8.796;2023-08-01T01:14:58;3.97;;;1.80;;
3068;SDS011;1545;51.728;8.796;2023-08-01T01:17:23;3.07;;;1.33;;
3068;SDS011;1545;51.728;8.796;2023-08-01T01:19:49;1.93;;;1.43;;
3068;SDS011;1545;51.728;8.796;2023-08-01T01:22:14;1.27;;;1.13;;
3068;SDS011;1545;51.728;8.796;2023-08-01T01:24:41;1.73;;;1.40;;
3068;SDS011;1545;51.728;8.796;2023-08-01T01:27:07;1.13;;;1.10;;
3068;SDS011;1545;51.728;8.796;2023-08-01T01:29:34;3.03;;;1.50;;
3068;SDS011;1545;51.728;8.796;2023-08-01T01:32:01;1.87;;;1.40;;
3068;SDS011;1545;51.728;8.796;2023-08-01T01:34:28;1.30;;;1.20;;
3068;SDS011;1545;51.728;8.796;2023-08-01T01:36:53;4.67;;;1.47;;
3068;SDS011;1545;51.728;8.796;2023-08-01T01:39:19;2.10;;;1.50;;
3068;SDS011;1545;51.728;8.796;2023-08-01T01:41:45;6.13;;;1.80;;
3068;SDS011;1545;51.728;8.796;2023-08-01T01:44:11;1.93;;;1.53;;
3068;SDS011;1545;51.728;8.796;2023-08-01T01:46:36;2.50;;;2.00;;
3068;SDS011;1545;51.728;8.796;2023-08-01T01:49:02;2.87;;;2.20;;
3068;SDS011;1545;51.728;8.796;2023-08-01T01:51:28;1.83;;;1.70;;
3068;SDS011;1545;51.728;8.796;2023-08-01T01:53:54;7.47;;;2.13;;
3068;SDS011;1545;51.728;8.796;2023-08-01T01:56:19;5.27;;;2.03;;
3068;SDS011;1545;51.728;8.796;2023-08-01T01:58:45;3.67;;;2.20;;
3068;SDS011;1545;51.728;8.796;2023-08-01T02:01:10;2.93;;;2.43;;
3068;SDS011;1545;51.728;8.796;2023-08-01T02:03:36;2.27;;;1.90;;
3068;SDS011;1545;51.728;8.796;2023-08-01T02:06:01;4.07;;;2.37;;
3068;SDS011;1545;51.728;8.796;2023-08-01T02:08:30;3.20;;;2.30;;
3068;SDS011;1545;51.728;8.796;2023-08-01T02:10:56;3.17;;;2.43;;
3068;SDS011;1545;51.728;8.796;2023-08-01T02:13:26;3.17;;;2.60;;
3068;SDS011;1545;51.728;8.796;2023-08-01T02:15:52;3.90;;;2.20;;
3068;SDS011;1545;51.728;8.796;2023-08-01T02:18:19;3.27;;;2.50;;
3068;SDS011;1545;51.728;8.796;2023-08-01T02:20:44;2.83;;;2.50;;
3068;SDS011;1545;51.728;8.796;2023-08-01T02:23:10;2.50;;;2.30;;
3068;SDS011;1545;51.728;8.796;2023-08-01T02:25:39;3.23;;;2.13;;
3068;SDS011;1545;51.728;8.796;2023-08-01T02:28:05;3.50;;;2.20;;
3068;SDS011;1545;51.728;8.796;2023-08-01T02:30:31;2.57;;;2.27;;
3068;SDS011;1545;51.728;8.796;2023-08-01T02:32:56;2.70;;;2.40;;
3068;SDS011;1545;51.728;8.796;2023-08-01T02:35:22;2.40;;;2.27;;
3068;SDS011;1545;51.728;8.796;2023-08-01T02:37:47;5.63;;;2.60;;
3068;SDS011;1545;51.728;8.796;2023-08-01T02:40:13;3.67;;;2.30;;
3068;SDS011;1545;51.728;8.796;2023-08-01T02:42:38;5.87;;;2.80;;
3068;SDS011;1545;51.728;8.796;2023-08-01T02:45:04;2.87;;;2.40;;
3068;SDS011;1545;51.728;8.796;2023-08-01T02:47:30;4.30;;;2.60;;
3068;SDS011;1545;51.728;8.796;2023-08-01T02:49:55;3.03;;;2.40;;
3068;SDS011;1545;51.728;8.796;2023-08-01T02:52:21;3.40;;;2.63;;
3068;SDS011;1545;51.728;8.796;2023-08-01T02:54:46;4.33;;;2.77;;
3068;SDS011;1545;51.728;8.796;2023-08-01T02:57:12;2.53;;;2.37;;
3068;SDS011;1545;51.728;8.796;2023-08-01T02:59:37;2.67;;;2.40;;
3068;SDS011;1545;51.728;8.796;2023-08-01T03:02:03;2.57;;;2.30;;
3068;SDS011;1545;51.728;8.796;2023-08-01T03:04:29;3.03;;;2.30;;
3068;SDS011;1545;51.728;8.796;2023-08-01T03:06:54;4.23;;;2.57;;
3068;SDS011;1545;51.728;8.796;2023-08-01T03:09:20;3.10;;;2.40;;
3068;SDS011;1545;51.728;8.796;2023-08-01T03:11:45;2.77;;;2.47;;
3068;SDS011;1545;51.728;8.796;2023-08-01T03:14:11;3.30;;;2.43;;
3068;SDS011;1545;51.728;8.796;2023-08-01T03:16:36;3.20;;;2.23;;
3068;SDS011;1545;51.728;8.796;2023-08-01T03:19:02;2.83;;;2.30;;
3068;SDS011;1545;51.728;8.796;2023-08-01T03:21:31;3.40;;;2.40;;
3068;SDS011;1545;51.728;8.796;2023-08-01T03:24:00;4.23;;;2.93;;
3068;SDS011;1545;51.728;8.796;2023-08-01T03:26:28;2.50;;;2.27;;
3068;SDS011;1545;51.728;8.796;2023-08-01T03:28:54;2.47;;;2.30;;
3068;SDS011;1545;51.728;8.796;2023-08-01T03:31:21;2.90;;;2.27;;
3068;SDS011;1545;51.728;8.796;2023-08-01T03:33:47;2.93;;;2.37;;
3068;SDS011;1545;51.728;8.796;2023-08-01T03:36:13;3.03;;;2.33;;
3068;SDS011;1545;51.728;8.796;2023-08-01T03:38:38;2.50;;;2.10;;
3068;SDS011;1545;51.728;8.796;2023-08-01T03:41:04;2.17;;;2.00;;
3068;SDS011;1545;51.728;8.796;2023-08-01T03:43:30;1.80;;;1.77;;
3068;SDS011;1545;51.728;8.796;2023-08-01T03:45:55;2.10;;;1.90;;
3068;SDS011;1545;51.728;8.796;2023-08-01T03:48:21;1.83;;;1.77;;
3068;SDS011;1545;51.728;8.796;2023-08-01T03:50:46;1.83;;;1.73;;
3068;SDS011;1545;51.728;8.796;2023-08-01T03:53:12;2.00;;;1.90;;
3068;SDS011;1545;51.728;8.796;2023-08-01T03:55:38;2.20;;;2.00;;
3068;SDS011;1545;51.728;8.796;2023-08-01T03:58:04;3.07;;;2.20;;
3068;SDS011;1545;51.728;8.796;2023-08-01T04:00:29;3.73;;;2.83;;
3068;SDS011;1545;51.728;8.796;2023-08-01T04:02:59;3.27;;;2.53;;
3068;SDS011;1545;51.728;8.796;2023-08-01T04:05:24;6.50;;;2.50;;
3068;SDS011;1545;51.728;8.796;2023-08-01T04:07:50;7.07;;;2.60;;
3068;SDS011;1545;51.728;8.796;2023-08-01T04:10:15;6.30;;;2.37;;
3068;SDS011;1545;51.728;8.796;2023-08-01T04:12:44;3.03;;;2.63;;
3068;SDS011;1545;51.728;8.796;2023-08-01T04:15:10;4.73;;;2.70;;
3068;SDS011;1545;51.728;8.796;2023-08-01T04:17:35;5.40;;;2.80;;
3068;SDS011;1545;51.728;8.796;2023-08-01T04:20:01;4.67;;;2.53;;
3068;SDS011;1545;51.728;8.796;2023-08-01T04:22:26;4.70;;;3.13;;
3068;SDS011;1545;51.728;8.796;2023-08-01T04:24:52;4.63;;;2.80;;
3068;SDS011;1545;51.728;8.796;2023-08-01T04:27:17;4.10;;;2.50;;
3068;SDS011;1545;51.728;8.796;2023-08-01T04:29:43;7.07;;;2.60;;
3068;SDS011;1545;51.728;8.796;2023-08-01T04:32:08;5.40;;;2.77;;
3068;SDS011;1545;51.728;8.796;2023-08-01T04:34:35;5.93;;;2.80;;
3068;SDS011;1545;51.728;8.796;2023-08-01T04:37:01;4.97;;;2.70;;
3068;SDS011;1545;51.728;8.796;2023-08-01T04:39:27;4.57;;;2.80;;
3068;SDS011;1545;51.728;8.796;2023-08-01T04:41:52;3.87;;;2.70;;
3068;SDS011;1545;51.728;8.796;2023-08-01T04:44:18;2.80;;;2.60;;
3068;SDS011;1545;51.728;8.796;2023-08-01T04:46:43;7.60;;;3.67;;
3068;SDS011;1545;51.728;8.796;2023-08-01T04:49:09;6.17;;;3.50;;
3068;SDS011;1545;51.728;8.796;2023-08-01T04:51:34;8.13;;;4.33;;
3068;SDS011;1545;51.728;8.796;2023-08-01T04:54:00;8.67;;;4.73;;
3068;SDS011;1545;51.728;8.796;2023-08-01T04:56:25;20.10;;;6.17;;
3068;SDS011;1545;51.728;8.796;2023-08-01T04:58:51;16.60;;;7.20;;
3068;SDS011;1545;51.728;8.796;2023-08-01T05:01:16;14.37;;;8.37;;
3068;SDS011;1545;51.728;8.796;2023-08-01T05:03:42;17.30;;;9.30;;
3068;SDS011;1545;51.728;8.796;2023-08-01T05:06:07;20.20;;;10.13;;
3068;SDS011;1545;51.728;8.796;2023-08-01T05:08:33;23.90;;;11.60;;
3068;SDS011;1545;51.728;8.796;2023-08-01T05:10:58;20.57;;;11.57;;
3068;SDS011;1545;51.728;8.796;2023-08-01T05:13:24;24.97;;;11.93;;
3068;SDS011;1545;51.728;8.796;2023-08-01T05:15:49;22.10;;;12.53;;
3068;SDS011;1545;51.728;8.796;2023-08-01T05:18:16;25.73;;;13.30;;
3068;SDS011;1545;51.728;8.796;2023-08-01T05:20:42;24.43;;;12.93;;
3068;SDS011;1545;51.728;8.796;2023-08-01T05:23:08;28.93;;;13.63;;
3068;SDS011;1545;51.728;8.796;2023-08-01T05:25:33;27.30;;;14.80;;
3068;SDS011;1545;51.728;8.796;2023-08-01T05:27:59;27.37;;;13.50;;
3068;SDS011;1545;51.728;8.796;2023-08-01T05:30:25;24.57;;;14.10;;
3068;SDS011;1545;51.728;8.796;2023-08-01T05:32:50;24.23;;;13.40;;
3068;SDS011;1545;51.728;8.796;2023-08-01T05:35:16;26.63;;;13.60;;
3068;SDS011;1545;51.728;8.796;2023-08-01T05:37:42;28.63;;;13.07;;
3068;SDS011;1545;51.728;8.796;2023-08-01T05:40:08;25.20;;;13.43;;
3068;SDS011;1545;51.728;8.796;2023-08-01T05:42:34;27.17;;;14.20;;
3068;SDS011;1545;51.728;8.796;2023-08-01T05:45:00;26.10;;;13.90;;
3068;SDS011;1545;51.728;8.796;2023-08-01T05:47:25;28.83;;;14.27;;
3068;SDS011;1545;51.728;8.796;2023-08-01T05:49:51;27.23;;;15.70;;
3068;SDS011;1545;51.728;8.796;2023-08-01T05:52:17;29.93;;;15.77;;
3068;SDS011;1545;51.728;8.796;2023-08-01T05:54:42;28.47;;;16.03;;
3068;SDS011;1545;51.728;8.796;2023-08-01T05:57:08;32.10;;;15.63;;
3068;SDS011;1545;51.728;8.796;2023-08-01T05:59:33;31.83;;;16.80;;
3068;SDS011;1545;51.728;8.796;2023-08-01T06:01:59;34.23;;;15.70;;
3068;SDS011;1545;51.728;8.796;2023-08-01T06:04:25;28.37;;;15.90;;
3068;SDS011;1545;51.728;8.796;2023-08-01T06:06:50;32.63;;;17.00;;
3068;SDS011;1545;51.728;8.796;2023-08-01T06:09:16;26.37;;;16.23;;
3068;SDS011;1545;51.728;8.796;2023-08-01T06:11:41;28.77;;;16.60;;
3068;SDS011;1545;51.728;8.796;2023-08-01T06:14:07;35.13;;;17.30;;
3068;SDS011;1545;51.728;8.796;2023-08-01T06:16:32;25.07;;;12.90;;
3068;SDS011;1545;51.728;8.796;2023-08-01T06:18:58;20.40;;;10.03;;
3068;SDS011;1545;51.728;8.796;2023-08-01T06:21:23;16.13;;;10.10;;
3068;SDS011;1545;51.728;8.796;2023-08-01T06:23:49;21.80;;;11.40;;
3068;SDS011;1545;51.728;8.796;2023-08-01T06:26:15;20.50;;;11.33;;
3068;SDS011;1545;51.728;8.796;2023-08-01T06:28:41;27.53;;;12.97;;
3068;SDS011;1545;51.728;8.796;2023-08-01T06:31:06;24.00;;;12.33;;
3068;SDS011;1545;51.728;8.796;2023-08-01T06:33:32;23.20;;;12.70;;
3068;SDS011;1545;51.728;8.796;2023-08-01T06:35:57;26.07;;;12.97;;
3068;SDS011;1545;51.728;8.796;2023-08-01T06:38:23;25.73;;;12.20;;
3068;SDS011;1545;51.728;8.796;2023-08-01T06:40:48;26.80;;;12.87;;
3068;SDS011;1545;51.728;8.796;2023-08-01T06:43:14;41.23;;;17.93;;
3068;SDS011;1545;51.728;8.796;2023-08-01T06:45:39;26.90;;;13.13;;
3068;SDS011;1545;51.728;8.796;2023-08-01T06:48:05;33.63;;;12.13;;
3068;SDS011;1545;51.728;8.796;2023-08-01T06:50:31;27.87;;;12.53;;
3068;SDS011;1545;51.728;8.796;2023-08-01T06:52:56;21.20;;;12.83;;
3068;SDS011;1545;51.728;8.796;2023-08-01T06:55:22;26.00;;;13.60;;
3068;SDS011;1545;51.728;8.796;2023-08-01T06:57:47;30.40;;;14.63;;
3068;SDS011;1545;51.728;8.796;2023-08-01T07:00:13;33.37;;;16.50;;
3068;SDS011;1545;51.728;8.796;2023-08-01T07:02:39;36.03;;;18.10;;
3068;SDS011;1545;51.728;8.796;2023-08-01T07:05:04;37.37;;;18.33;;
3068;SDS011;1545;51.728;8.796;2023-08-01T07:07:30;33.43;;;18.80;;
3068;SDS011;1545;51.728;8.796;2023-08-01T07:09:55;42.87;;;18.23;;
3068;SDS011;1545;51.728;8.796;2023-08-01T07:12:21;37.57;;;19.13;;
3068;SDS011;1545;51.728;8.796;2023-08-01T07:14:47;37.40;;;17.47;;
3068;SDS011;1545;51.728;8.796;2023-08-01T07:17:12;35.93;;;18.07;;
3068;SDS011;1545;51.728;8.796;2023-08-01T07:19:38;38.50;;;19.03;;
3068;SDS011;1545;51.728;8.796;2023-08-01T07:22:03;37.20;;;17.00;;
3068;SDS011;1545;51.728;8.796;2023-08-01T07:24:29;28.00;;;17.17;;
3068;SDS011;1545;51.728;8.796;2023-08-01T07:26:54;34.07;;;18.17;;
3068;SDS011;1545;51.728;8.796;2023-08-01T07:29:20;32.10;;;17.47;;
3068;SDS011;1545;51.728;8.796;2023-08-01T07:31:45;40.17;;;18.63;;
3068;SDS011;1545;51.728;8.796;2023-08-01T07:34:11;30.50;;;18.00;;
3068;SDS011;1545;51.728;8.796;2023-08-01T07:36:36;32.37;;;17.00;;
3068;SDS011;1545;51.728;8.796;2023-08-01T07:39:02;35.93;;;18.47;;
3068;SDS011;1545;51.728;8.796;2023-08-01T07:41:28;35.07;;;17.10;;
3068;SDS011;1545;51.728;8.796;2023-08-01T07:43:55;31.60;;;16.67;;
3068;SDS011;1545;51.728;8.796;2023-08-01T07:46:20;34.73;;;16.43;;
3068;SDS011;1545;51.728;8.796;2023-08-01T07:48:46;26.80;;;16.73;;
3068;SDS011;1545;51.728;8.796;2023-08-01T07:51:11;28.77;;;16.97;;
3068;SDS011;1545;51.728;8.796;2023-08-01T07:53:37;29.57;;;16.80;;
3068;SDS011;1545;51.728;8.796;2023-08-01T07:56:03;34.43;;;18.17;;
3068;SDS011;1545;51.728;8.796;2023-08-01T07:58:31;27.80;;;17.87;;
3068;SDS011;1545;51.728;8.796;2023-08-01T08:00:57;31.90;;;18.17;;
3068;SDS011;1545;51.728;8.796;2023-08-01T08:03:30;35.20;;;18.70;;
3068;SDS011;1545;51.728;8.796;2023-08-01T08:05:56;37.63;;;19.97;;
3068;SDS011;1545;51.728;8.796;2023-08-01T08:08:21;37.90;;;20.33;;
3068;SDS011;1545;51.728;8.796;2023-08-01T08:10:47;40.17;;;20.70;;
3068;SDS011;1545;51.728;8.796;2023-08-01T08:13:12;33.87;;;20.03;;
3068;SDS011;1545;51.728;8.796;2023-08-01T08:15:38;33.53;;;19.33;;
3068;SDS011;1545;51.728;8.796;2023-08-01T08:18:04;29.20;;;16.87;;
3068;SDS011;1545;51.728;8.796;2023-08-01T08:20:30;28.03;;;14.80;;
3068;SDS011;1545;51.728;8.796;2023-08-01T08:22:57;23.43;;;14.60;;
3068;SDS011;1545;51.728;8.796;2023-08-01T08:25:23;21.73;;;14.10;;
3068;SDS011;1545;51.728;8.796;2023-08-01T08:27:48;26.77;;;14.73;;
3068;SDS011;1545;51.728;8.796;2023-08-01T08:30:14;23.20;;;13.33;;
3068;SDS011;1545;51.728;8.796;2023-08-01T08:32:40;19.83;;;12.97;;
3068;SDS011;1545;51.728;8.796;2023-08-01T08:35:05;22.20;;;13.10;;
3068;SDS011;1545;51.728;8.796;2023-08-01T08:37:31;25.17;;;13.00;;
3068;SDS011;1545;51.728;8.796;2023-08-01T08:39:57;23.13;;;13.97;;
3068;SDS011;1545;51.728;8.796;2023-08-01T08:42:22;26.23;;;14.33;;
3068;SDS011;1545;51.728;8.796;2023-08-01T08:44:49;23.97;;;15.27;;
3068;SDS011;1545;51.728;8.796;2023-08-01T08:47:19;30.80;;;13.80;;
3068;SDS011;1545;51.728;8.796;2023-08-01T08:49:50;23.17;;;13.53;;
3068;SDS011;1545;51.728;8.796;2023-08-01T08:52:17;28.90;;;13.97;;
3068;SDS011;1545;51.728;8.796;2023-08-01T08:54:44;26.57;;;13.93;;
3068;SDS011;1545;51.728;8.796;2023-08-01T08:57:11;23.10;;;14.90;;
3068;SDS011;1545;51.728;8.796;2023-08-01T08:59:38;20.60;;;14.83;;
3068;SDS011;1545;51.728;8.796;2023-08-01T09:02:04;26.60;;;16.30;;
3068;SDS011;1545;51.728;8.796;2023-08-01T09:04:31;27.63;;;16.70;;
3068;SDS011;1545;51.728;8.796;2023-08-01T09:06:58;29.93;;;17.23;;
3068;SDS011;1545;51.728;8.796;2023-08-01T09:09:32;32.63;;;17.20;;
3068;SDS011;1545;51.728;8.796;2023-08-01T09:11:59;34.57;;;17.77;;
3068;SDS011;1545;51.728;8.796;2023-08-01T09:14:24;32.77;;;18.37;;
3068;SDS011;1545;51.728;8.796;2023-08-01T09:16:50;29.30;;;17.63;;
3068;SDS011;1545;51.728;8.796;2023-08-01T09:19:19;28.00;;;17.83;;
3068;SDS011;1545;51.728;8.796;2023-08-01T09:21:46;42.57;;;18.73;;
3068;SDS011;1545;51.728;8.796;2023-08-01T09:24:13;34.50;;;19.83;;
3068;SDS011;1545;51.728;8.796;2023-08-01T09:26:40;24.90;;;15.17;;
3068;SDS011;1545;51.728;8.796;2023-08-01T09:29:06;24.97;;;13.40;;
3068;SDS011;1545;51.728;8.796;2023-08-01T09:31:33;19.57;;;13.00;;
3068;SDS011;1545;51.728;8.796;2023-08-01T09:34:00;20.37;;;13.60;;
3068;SDS011;1545;51.728;8.796;2023-08-01T09:36:30;17.53;;;12.37;;
3068;SDS011;1545;51.728;8.796;2023-08-01T09:38:59;17.97;;;13.00;;
3068;SDS011;1545;51.728;8.796;2023-08-01T09:41:29;23.50;;;13.17;;
3068;SDS011;1545;51.728;8.796;2023-08-01T09:43:56;26.20;;;12.30;;
3068;SDS011;1545;51.728;8.796;2023-08-01T09:46:23;19.07;;;12.83;;
3068;SDS011;1545;51.728;8.796;2023-08-01T09:48:49;20.47;;;12.63;;
3068;SDS011;1545;51.728;8.796;2023-08-01T09:51:15;22.10;;;11.10;;
3068;SDS011;1545;51.728;8.796;2023-08-01T09:53:52;21.00;;;10.67;;
3068;SDS011;1545;51.728;8.796;2023-08-01T09:56:23;19.57;;;11.57;;
3068;SDS011;1545;51.728;8.796;2023-08-01T09:58:51;17.43;;;11.23;;
3068;SDS011;1545;51.728;8.796;2023-08-01T10:01:19;18.37;;;11.47;;
3068;SDS011;1545;51.728;8.796;2023-08-01T10:03:49;18.43;;;10.47;;
3068;SDS011;1545;51.728;8.796;2023-08-01T10:06:23;14.20;;;10.03;;
3068;SDS011;1545;51.728;8.796;2023-08-01T10:08:53;14.97;;;9.67;;
3068;SDS011;1545;51.728;8.796;2023-08-01T10:11:19;14.73;;;10.40;;
3068;SDS011;1545;51.728;8.796;2023-08-01T10:13:46;28.90;;;11.20;;
3068;SDS011;1545;51.728;8.796;2023-08-01T10:16:12;15.93;;;10.17;;
3068;SDS011;1545;51.728;8.796;2023-08-01T10:18:39;14.43;;;10.00;;
3068;SDS011;1545;51.728;8.796;2023-08-01T10:21:05;19.10;;;9.93;;
3068;SDS011;1545;51.728;8.796;2023-08-01T10:23:33;15.13;;;10.17;;
3068;SDS011;1545;51.728;8.796;2023-08-01T10:25:59;18.40;;;9.83;;
3068;SDS011;1545;51.728;8.796;2023-08-01T10:28:33;18.60;;;10.17;;
3068;SDS011;1545;51.728;8.796;2023-08-01T10:31:06;18.67;;;10.00;;
3068;SDS011;1545;51.728;8.796;2023-08-01T10:33:33;20.10;;;9.70;;
3068;SDS011;1545;51.728;8.796;2023-08-01T10:35:59;18.70;;;9.90;;
3068;SDS011;1545;51.728;8.796;2023-08-01T10:38:24;18.07;;;9.90;;
3068;SDS011;1545;51.728;8.796;2023-08-01T10:40:50;13.73;;;8.73;;
3068;SDS011;1545;51.728;8.796;2023-08-01T10:43:23;14.37;;;7.83;;
3068;SDS011;1545;51.728;8.796;2023-08-01T10:46:02;13.80;;;7.40;;
3068;SDS011;1545;51.728;8.796;2023-08-01T10:48:28;11.50;;;8.07;;
3068;SDS011;1545;51.728;8.796;2023-08-01T10:50:57;12.70;;;7.47;;
3068;SDS011;1545;51.728;8.796;2023-08-01T10:53:23;20.50;;;8.47;;
3068;SDS011;1545;51.728;8.796;2023-08-01T10:55:48;15.67;;;7.87;;
3068;SDS011;1545;51.728;8.796;2023-08-01T10:58:14;16.60;;;8.07;;
3068;SDS011;1545;51.728;8.796;2023-08-01T11:00:43;13.03;;;8.07;;
3068;SDS011;1545;51.728;8.796;2023-08-01T11:03:09;20.57;;;8.13;;
3068;SDS011;1545;51.728;8.796;2023-08-01T11:05:34;14.90;;;8.10;;
3068;SDS011;1545;51.728;8.796;2023-08-01T11:08:01;12.77;;;7.27;;
3068;SDS011;1545;51.728;8.796;2023-08-01T11:10:30;13.60;;;7.47;;
3068;SDS011;1545;51.728;8.796;2023-08-01T11:12:57;11.33;;;6.40;;
3068;SDS011;1545;51.728;8.796;2023-08-01T11:15:23;13.50;;;5.90;;
3068;SDS011;1545;51.728;8.796;2023-08-01T11:17:50;10.83;;;5.93;;
3068;SDS011;1545;51.728;8.796;2023-08-01T11:20:18;11.10;;;6.37;;
3068;SDS011;1545;51.728;8.796;2023-08-01T11:22:56;14.63;;;7.07;;
3068;SDS011;1545;51.728;8.796;2023-08-01T11:28:09;8.00;;;5.33;;
3068;SDS011;1545;51.728;8.796;2023-08-01T11:30:36;9.40;;;5.63;;
3068;SDS011;1545;51.728;8.796;2023-08-01T11:33:02;12.37;;;5.50;;
3068;SDS011;1545;51.728;8.796;2023-08-01T11:35:45;10.13;;;5.50;;
3068;SDS011;1545;51.728;8.796;2023-08-01T11:38:14;9.57;;;5.93;;
3068;SDS011;1545;51.728;8.796;2023-08-01T11:40:40;9.53;;;5.63;;
3068;SDS011;1545;51.728;8.796;2023-08-01T11:43:06;14.93;;;6.70;;
3068;SDS011;1545;51.728;8.796;2023-08-01T11:45:32;12.87;;;5.97;;
3068;SDS011;1545;51.728;8.796;2023-08-01T11:47:57;13.13;;;7.33;;
3068;SDS011;1545;51.728;8.796;2023-08-01T11:50:24;12.83;;;7.93;;
3068;SDS011;1545;51.728;8.796;2023-08-01T11:52:51;14.47;;;8.23;;
3068;SDS011;1545;51.728;8.796;2023-08-01T11:55:21;20.90;;;9.20;;
3068;SDS011;1545;51.728;8.796;2023-08-01T11:57:51;16.23;;;8.83;;
3068;SDS011;1545;51.728;8.796;2023-08-01T12:00:24;14.43;;;9.27;;
3068;SDS011;1545;51.728;8.796;2023-08-01T12:02:50;16.53;;;8.60;;
3068;SDS011;1545;51.728;8.796;2023-08-01T12:05:23;11.50;;;8.47;;
3068;SDS011;1545;51.728;8.796;2023-08-01T12:07:49;13.30;;;8.03;;
3068;SDS011;1545;51.728;8.796;2023-08-01T12:10:14;9.83;;;6.93;;
3068;SDS011;1545;51.728;8.796;2023-08-01T12:12:44;14.10;;;7.80;;
3068;SDS011;1545;51.728;8.796;2023-08-01T12:15:11;12.00;;;7.50;;
3068;SDS011;1545;51.728;8.796;2023-08-01T12:17:40;11.17;;;7.60;;
3068;SDS011;1545;51.728;8.796;2023-08-01T12:20:06;17.90;;;8.03;;
3068;SDS011;1545;51.728;8.796;2023-08-01T12:22:32;9.23;;;5.50;;
3068;SDS011;1545;51.728;8.796;2023-08-01T12:24:58;6.87;;;4.40;;
3068;SDS011;1545;51.728;8.796;2023-08-01T12:27:23;6.97;;;4.63;;
3068;SDS011;1545;51.728;8.796;2023-08-01T12:29:49;14.87;;;5.17;;
3068;SDS011;1545;51.728;8.796;2023-08-01T12:32:14;9.73;;;5.47;;
3068;SDS011;1545;51.728;8.796;2023-08-01T12:34:40;11.20;;;5.80;;
3068;SDS011;1545;51.728;8.796;2023-08-01T12:37:05;14.23;;;5.90;;
3068;SDS011;1545;51.728;8.796;2023-08-01T12:39:31;11.00;;;6.73;;
3068;SDS011;1545;51.728;8.796;2023-08-01T12:41:57;12.93;;;6.97;;
3068;SDS011;1545;51.728;8.796;2023-08-01T12:44:22;12.83;;;6.80;;
3068;SDS011;1545;51.728;8.796;2023-08-01T12:46:48;11.97;;;7.27;;
3068;SDS011;1545;51.728;8.796;2023-08-01T12:49:13;11.27;;;7.53;;
3068;SDS011;1545;51.728;8.796;2023-08-01T12:51:39;19.30;;;8.07;;
3068;SDS011;1545;51.728;8.796;2023-08-01T12:54:05;15.50;;;8.50;;
3068;SDS011;1545;51.728;8.796;2023-08-01T12:56:31;14.40;;;7.80;;
3068;SDS011;1545;51.728;8.796;2023-08-01T12:58:57;9.60;;;6.67;;
3068;SDS011;1545;51.728;8.796;2023-08-01T13:01:22;14.40;;;6.93;;
3068;SDS011;1545;51.728;8.796;2023-08-01T13:03:48;12.10;;;6.60;;
3068;SDS011;1545;51.728;8.796;2023-08-01T13:06:13;13.20;;;6.63;;
3068;SDS011;1545;51.728;8.796;2023-08-01T13:08:39;11.23;;;6.17;;
3068;SDS011;1545;51.728;8.796;2023-08-01T13:11:11;10.37;;;4.43;;
3068;SDS011;1545;51.728;8.796;2023-08-01T13:13:38;8.40;;;4.17;;
3068;SDS011;1545;51.728;8.796;2023-08-01T13:16:05;8.93;;;3.60;;
3068;SDS011;1545;51.728;8.796;2023-08-01T13:18:30;5.30;;;3.40;;
3068;SDS011;1545;51.728;8.796;2023-08-01T13:20:56;8.63;;;3.40;;
3068;SDS011;1545;51.728;8.796;2023-08-01T13:23:24;6.10;;;3.50;;
3068;SDS011;1545;51.728;8.796;2023-08-01T13:25:50;7.90;;;3.87;;
3068;SDS011;1545;51.728;8.796;2023-08-01T13:28:15;6.47;;;3.60;;
3068;SDS011;1545;51.728;8.796;2023-08-01T13:30:41;5.83;;;3.23;;
3068;SDS011;1545;51.728;8.796;2023-08-01T13:33:06;9.37;;;3.77;;
3068;SDS011;1545;51.728;8.796;2023-08-01T13:35:32;4.30;;;3.53;;
3068;SDS011;1545;51.728;8.796;2023-08-01T13:37:57;16.23;;;3.50;;
3068;SDS011;1545;51.728;8.796;2023-08-01T13:40:24;13.37;;;3.87;;
3068;SDS011;1545;51.728;8.796;2023-08-01T13:42:50;9.17;;;3.83;;
3068;SDS011;1545;51.728;8.796;2023-08-01T13:45:15;9.43;;;4.03;;
3068;SDS011;1545;51.728;8.796;2023-08-01T13:47:41;6.13;;;3.83;;
3068;SDS011;1545;51.728;8.796;2023-08-01T13:50:07;10.83;;;4.40;;
3068;SDS011;1545;51.728;8.796;2023-08-01T13:52:33;9.33;;;3.93;;
3068;SDS011;1545;51.728;8.796;2023-08-01T13:55:01;8.23;;;4.37;;
3068;SDS011;1545;51.728;8.796;2023-08-01T13:57:27;14.10;;;4.73;;
3068;SDS011;1545;51.728;8.796;2023-08-01T13:59:53;6.37;;;3.67;;
3068;SDS011;1545;51.728;8.796;2023-08-01T14:02:19;12.63;;;4.40;;
3068;SDS011;1545;51.728;8.796;2023-08-01T14:04:44;9.37;;;3.93;;
3068;SDS011;1545;51.728;8.796;2023-08-01T14:07:10;6.63;;;3.90;;
3068;SDS011;1545;51.728;8.796;2023-08-01T14:09:35;13.87;;;4.00;;
3068;SDS011;1545;51.728;8.796;2023-08-01T14:12:01;8.87;;;4.00;;
3068;SDS011;1545;51.728;8.796;2023-08-01T14:14:27;10.57;;;6.10;;
3068;SDS011;1545;51.728;8.796;2023-08-01T14:16:53;8.40;;;4.80;;
3068;SDS011;1545;51.728;8.796;2023-08-01T14:19:19;8.13;;;3.77;;
3068;SDS011;1545;51.728;8.796;2023-08-01T14:21:45;18.33;;;4.40;;
3068;SDS011;1545;51.728;8.796;2023-08-01T14:24:10;9.83;;;4.23;;
3068;SDS011;1545;51.728;8.796;2023-08-01T14:26:37;8.37;;;4.20;;
3068;SDS011;1545;51.728;8.796;2023-08-01T14:29:04;8.87;;;4.30;;
3068;SDS011;1545;51.728;8.796;2023-08-01T14:31:29;11.90;;;4.60;;
3068;SDS011;1545;51.728;8.796;2023-08-01T14:33:55;10.80;;;4.70;;
3068;SDS011;1545;51.728;8.796;2023-08-01T14:36:20;10.33;;;4.73;;
3068;SDS011;1545;51.728;8.796;2023-08-01T14:38:46;8.40;;;4.23;;
3068;SDS011;1545;51.728;8.796;2023-08-01T14:41:16;15.77;;;5.30;;
3068;SDS011;1545;51.728;8.796;2023-08-01T14:43:42;7.97;;;4.33;;
3068;SDS011;1545;51.728;8.796;2023-08-01T14:46:08;10.83;;;4.83;;
3068;SDS011;1545;51.728;8.796;2023-08-01T14:48:33;9.90;;;4.57;;
3068;SDS011;1545;51.728;8.796;2023-08-01T14:50:59;7.63;;;4.57;;
3068;SDS011;1545;51.728;8.796;2023-08-01T14:53:24;8.43;;;4.20;;
3068;SDS011;1545;51.728;8.796;2023-08-01T14:55:56;10.47;;;4.40;;
3068;SDS011;1545;51.728;8.796;2023-08-01T14:58:24;12.03;;;4.43;;
3068;SDS011;1545;51.728;8.796;2023-08-01T15:00:50;8.73;;;4.40;;